createdAt,value
2019-05-05T00:00:14.398Z,3.53
2019-05-05T00:02:57.796Z,3.40
2019-05-05T00:05:26.072Z,3.30
2019-05-05T00:07:54.075Z,3.07
2019-05-05T00:10:25.377Z,3.30
2019-05-05T00:13:08.922Z,3.07
2019-05-05T00:15:46.417Z,3.30
2019-05-05T00:18:14.830Z,3.47
2019-05-05T00:20:41.544Z,3.27
2019-05-05T00:23:07.964Z,3.50
2019-05-05T00:25:34.462Z,3.50
2019-05-05T00:28:00.832Z,3.27
2019-05-05T00:30:27.225Z,3.33
2019-05-05T00:32:54.827Z,3.00
2019-05-05T00:35:21.667Z,3.23
2019-05-05T00:37:48.201Z,2.93
2019-05-05T00:40:14.844Z,3.30
2019-05-05T00:42:41.210Z,3.60
2019-05-05T00:45:07.899Z,3.33
2019-05-05T00:47:39.158Z,3.30
2019-05-05T00:50:07.842Z,3.10
2019-05-05T00:52:35.157Z,3.30
2019-05-05T00:55:02.024Z,3.17
2019-05-05T00:57:28.369Z,3.37
2019-05-05T00:59:54.675Z,3.03
2019-05-05T01:02:25.819Z,3.57
2019-05-05T01:05:10.817Z,3.57
2019-05-05T01:07:38.757Z,3.43
2019-05-05T01:10:05.518Z,3.30
2019-05-05T01:12:32.372Z,3.77
2019-05-05T01:14:58.680Z,3.40
2019-05-05T01:17:25.414Z,3.50
2019-05-05T01:20:01.247Z,3.40
2019-05-05T01:22:20.548Z,2.70
2019-05-05T01:24:46.940Z,3.27
2019-05-05T01:27:14.761Z,3.20
2019-05-05T01:29:41.286Z,3.17
2019-05-05T01:32:10.992Z,3.07
2019-05-05T01:34:39.119Z,3.43
2019-05-05T01:37:10.410Z,3.03
2019-05-05T01:39:38.790Z,2.93
2019-05-05T01:42:16.188Z,3.83
2019-05-05T01:44:44.646Z,3.37
2019-05-05T01:47:11.195Z,3.40
2019-05-05T01:49:37.521Z,3.43
2019-05-05T01:52:04.441Z,3.57
2019-05-05T01:54:31.001Z,3.10
2019-05-05T01:56:57.639Z,3.37
2019-05-05T01:59:24.968Z,3.20
2019-05-05T02:01:51.630Z,3.17
2019-05-05T02:04:17.993Z,3.40
2019-05-05T02:06:44.438Z,3.17
2019-05-05T02:09:10.828Z,3.30
2019-05-05T02:11:37.481Z,3.40
2019-05-05T02:14:05.086Z,2.93
2019-05-05T02:16:31.660Z,3.13
2019-05-05T02:18:58.001Z,3.10
2019-05-05T02:21:24.863Z,3.57
2019-05-05T02:23:51.430Z,3.30
2019-05-05T02:26:17.903Z,2.87
2019-05-05T02:28:48.759Z,3.17
2019-05-05T02:31:17.222Z,2.90
2019-05-05T02:33:46.017Z,2.97
2019-05-05T02:36:11.778Z,2.87
2019-05-05T02:38:38.599Z,3.30
2019-05-05T02:41:06.134Z,3.20
2019-05-05T02:43:34.418Z,3.03
2019-05-05T02:46:25.923Z,2.70
2019-05-05T02:48:55.339Z,2.87
2019-05-05T02:51:25.744Z,2.40
2019-05-05T02:53:54.647Z,3.00
2019-05-05T02:56:26.288Z,2.83
2019-05-05T02:58:57.441Z,2.77
2019-05-05T03:01:34.108Z,2.90
2019-05-05T03:04:03.777Z,2.67
2019-05-05T03:06:29.333Z,2.93
2019-05-05T03:08:56.191Z,2.60
2019-05-05T03:11:24.025Z,2.90
2019-05-05T03:13:53.527Z,2.80
2019-05-05T03:16:23.583Z,3.60
2019-05-05T03:18:50.351Z,3.30
2019-05-05T03:21:18.351Z,3.00
2019-05-05T03:23:45.426Z,3.53
2019-05-05T03:26:14.082Z,3.60
2019-05-05T03:28:45.419Z,3.57
2019-05-05T03:31:15.572Z,3.30
2019-05-05T03:33:40.678Z,3.20
2019-05-05T03:36:07.417Z,3.63
2019-05-05T03:38:34.565Z,4.07
2019-05-05T03:41:03.632Z,3.63
2019-05-05T03:43:33.796Z,3.47
2019-05-05T03:46:04.349Z,3.57
2019-05-05T03:48:31.136Z,3.93
2019-05-05T03:50:57.585Z,4.10
2019-05-05T03:53:24.581Z,3.77
2019-05-05T03:55:51.024Z,3.50
2019-05-05T03:58:17.435Z,3.80
2019-05-05T04:01:08.721Z,4.03
2019-05-05T04:03:35.042Z,3.70
2019-05-05T04:06:06.388Z,3.80
2019-05-05T04:08:33.910Z,3.50
2019-05-05T04:11:01.543Z,4.87
2019-05-05T04:13:28.032Z,3.77
2019-05-05T04:16:13.745Z,4.03
2019-05-05T04:18:43.566Z,4.60
2019-05-05T04:21:09.911Z,3.77
2019-05-05T04:23:36.301Z,5.00
2019-05-05T04:26:03.796Z,4.37
2019-05-05T04:28:30.294Z,4.57
2019-05-05T04:30:56.625Z,4.23
2019-05-05T04:33:23.618Z,4.57
2019-05-05T04:35:50.124Z,4.73
2019-05-05T04:38:16.434Z,4.10
2019-05-05T04:40:43.526Z,4.13
2019-05-05T04:43:10.128Z,3.93
2019-05-05T04:45:36.413Z,3.83
2019-05-05T04:48:07.696Z,5.27
2019-05-05T04:50:38.597Z,4.10
2019-05-05T04:53:06.801Z,4.70
2019-05-05T04:55:33.791Z,5.20
2019-05-05T04:58:00.185Z,5.23
2019-05-05T05:00:26.449Z,4.53
2019-05-05T05:02:54.688Z,5.03
2019-05-05T05:05:24.423Z,5.30
2019-05-05T05:07:50.933Z,5.03
2019-05-05T05:10:17.484Z,4.97
2019-05-05T05:12:43.901Z,5.83
2019-05-05T05:15:10.577Z,5.30
2019-05-05T05:17:53.404Z,5.87
2019-05-05T05:20:19.517Z,5.20
2019-05-05T05:22:45.851Z,5.03
2019-05-05T05:25:13.589Z,5.47
2019-05-05T05:27:40.033Z,5.43
2019-05-05T05:30:06.652Z,6.20
2019-05-05T05:32:33.965Z,5.33
2019-05-05T05:35:00.432Z,4.93
2019-05-05T05:37:26.723Z,5.17
2019-05-05T05:39:57.883Z,5.57
2019-05-05T05:42:24.255Z,5.60
2019-05-05T05:44:58.246Z,5.40
2019-05-05T05:47:44.174Z,5.33
2019-05-05T05:50:16.111Z,5.20
2019-05-05T05:52:43.638Z,5.43
2019-05-05T05:55:09.993Z,5.60
2019-05-05T05:57:36.321Z,5.73
2019-05-05T06:00:05.157Z,5.37
2019-05-05T06:02:33.389Z,5.80
2019-05-05T06:04:59.615Z,5.63
2019-05-05T06:07:26.072Z,5.33
2019-05-05T06:09:54.158Z,6.43
2019-05-05T06:12:20.750Z,4.80
2019-05-05T06:14:47.293Z,5.13
2019-05-05T06:17:13.640Z,5.53
2019-05-05T06:19:45.683Z,4.97
2019-05-05T06:22:13.894Z,5.17
2019-05-05T06:24:40.455Z,5.37
2019-05-05T06:27:06.711Z,4.80
2019-05-05T06:29:34.469Z,4.67
2019-05-05T06:32:01.007Z,5.17
2019-05-05T06:34:27.402Z,4.80
2019-05-05T06:36:53.865Z,4.83
2019-05-05T06:39:20.134Z,5.13
2019-05-05T06:41:48.341Z,4.87
2019-05-05T06:44:20.356Z,4.23
2019-05-05T06:47:00.869Z,4.77
2019-05-05T06:49:27.205Z,4.30
2019-05-05T06:51:54.656Z,5.23
2019-05-05T06:54:21.495Z,4.40
2019-05-05T06:56:47.826Z,4.53
2019-05-05T06:59:14.569Z,4.53
2019-05-05T07:01:40.895Z,4.17
2019-05-05T07:04:07.225Z,4.67
2019-05-05T07:06:34.321Z,4.63
2019-05-05T07:09:00.810Z,4.07
2019-05-05T07:11:27.160Z,4.63
2019-05-05T07:13:53.748Z,4.47
2019-05-05T07:16:20.102Z,4.70
2019-05-05T07:18:46.763Z,4.40
2019-05-05T07:21:14.267Z,4.50
2019-05-05T07:23:40.745Z,4.77
2019-05-05T07:26:07.076Z,4.20
2019-05-05T07:28:34.258Z,4.23
2019-05-05T07:31:01.193Z,4.70
2019-05-05T07:33:27.488Z,3.93
2019-05-05T07:36:14.609Z,4.37
2019-05-05T07:38:40.866Z,4.53
2019-05-05T07:41:07.268Z,4.97
2019-05-05T07:43:34.459Z,4.53
2019-05-05T07:46:01.061Z,4.90
2019-05-05T07:48:27.389Z,4.80
2019-05-05T07:51:02.059Z,5.00
2019-05-05T07:53:24.323Z,4.47
2019-05-05T07:55:50.386Z,4.57
2019-05-05T07:58:16.805Z,4.87
2019-05-05T08:00:43.763Z,5.30
2019-05-05T08:03:10.180Z,4.73
2019-05-05T08:05:36.846Z,4.80
2019-05-05T08:08:04.604Z,4.90
2019-05-05T08:10:31.022Z,4.70
2019-05-05T08:12:57.349Z,4.50
2019-05-05T08:15:25.624Z,4.90
2019-05-05T08:17:53.973Z,5.00
2019-05-05T08:20:23.829Z,4.33
2019-05-05T08:22:50.241Z,4.50
2019-05-05T08:25:34.481Z,5.70
2019-05-05T08:27:57.179Z,5.67
2019-05-05T08:30:25.518Z,5.80
2019-05-05T08:32:53.916Z,5.97
2019-05-05T08:35:20.534Z,4.60
2019-05-05T08:37:46.863Z,4.80
2019-05-05T08:40:14.774Z,5.03
2019-05-05T08:42:41.516Z,4.63
2019-05-05T08:45:08.215Z,5.40
2019-05-05T08:47:34.665Z,4.70
2019-05-05T08:50:01.414Z,4.13
2019-05-05T08:52:27.818Z,4.83
2019-05-05T08:54:54.277Z,4.60
2019-05-05T08:57:20.784Z,4.83
2019-05-05T08:59:47.112Z,4.63
2019-05-05T09:02:14.930Z,5.10
2019-05-05T09:04:41.514Z,4.20
2019-05-05T09:07:07.844Z,4.07
2019-05-05T09:09:34.175Z,4.40
2019-05-05T09:12:00.506Z,4.20
2019-05-05T09:14:26.733Z,4.77
2019-05-05T09:16:53.723Z,3.90
2019-05-05T09:19:21.458Z,3.30
2019-05-05T09:21:49.654Z,2.63
2019-05-05T09:24:36.237Z,3.00
2019-05-05T09:27:08.625Z,3.13
2019-05-05T09:29:39.793Z,2.90
2019-05-05T09:32:06.169Z,3.20
2019-05-05T09:34:34.116Z,2.90
2019-05-05T09:37:03.677Z,2.90
2019-05-05T09:39:30.194Z,3.30
2019-05-05T09:41:56.921Z,3.03
2019-05-05T09:44:24.145Z,3.17
2019-05-05T09:46:50.693Z,3.10
2019-05-05T09:49:16.966Z,3.00
2019-05-05T09:51:43.952Z,4.33
2019-05-05T09:54:14.355Z,3.27
2019-05-05T09:56:38.588Z,3.13
2019-05-05T09:59:05.031Z,3.30
2019-05-05T10:01:31.349Z,3.30
2019-05-05T10:04:07.830Z,4.40
2019-05-05T10:06:34.661Z,4.57
2019-05-05T10:09:01.091Z,4.70
2019-05-05T10:11:27.438Z,3.90
2019-05-05T10:13:54.623Z,3.93
2019-05-05T10:16:23.548Z,3.70
2019-05-05T10:18:49.177Z,4.10
2019-05-05T10:21:17.777Z,3.93
2019-05-05T10:23:45.424Z,5.40
2019-05-05T10:26:11.753Z,5.50
2019-05-05T10:28:38.190Z,4.47
2019-05-05T10:31:04.752Z,4.90
2019-05-05T10:33:36.069Z,4.30
2019-05-05T10:35:59.314Z,4.07
2019-05-05T10:38:25.658Z,4.40
2019-05-05T10:40:53.617Z,4.10
2019-05-05T10:43:20.020Z,3.97
2019-05-05T10:45:46.446Z,3.73
2019-05-05T10:48:14.385Z,4.13
2019-05-05T10:50:40.844Z,3.77
2019-05-05T10:53:07.222Z,4.40
2019-05-05T10:55:34.671Z,5.10
2019-05-05T10:58:01.316Z,5.03
2019-05-05T11:00:46.365Z,3.57
2019-05-05T11:03:14.889Z,4.00
2019-05-05T11:05:41.608Z,4.20
2019-05-05T11:08:08.041Z,4.07
2019-05-05T11:10:34.378Z,4.47
2019-05-05T11:13:00.955Z,3.47
2019-05-05T11:15:27.578Z,3.87
2019-05-05T11:17:54.328Z,3.43
2019-05-05T11:20:20.920Z,3.70
2019-05-05T11:22:47.566Z,3.03
2019-05-05T11:25:14.110Z,3.57
2019-05-05T11:27:40.524Z,3.93
2019-05-05T11:30:14.740Z,3.40
2019-05-05T11:32:59.425Z,3.73
2019-05-05T11:35:44.529Z,3.40
2019-05-05T11:38:10.902Z,3.20
2019-05-05T11:40:37.129Z,3.50
2019-05-05T11:43:03.805Z,3.43
2019-05-05T11:45:30.301Z,3.80
2019-05-05T11:47:56.533Z,4.20
2019-05-05T11:50:23.832Z,3.90
2019-05-05T11:52:50.316Z,3.60
2019-05-05T11:55:16.975Z,3.43
2019-05-05T11:57:43.795Z,3.87
2019-05-05T12:00:10.312Z,3.67
2019-05-05T12:02:36.537Z,3.50
2019-05-05T12:05:04.665Z,3.70
2019-05-05T12:07:31.064Z,4.27
2019-05-05T12:09:57.392Z,4.20
2019-05-05T12:12:23.791Z,4.60
2019-05-05T12:14:51.082Z,4.63
2019-05-05T12:17:19.258Z,4.10
2019-05-05T12:19:48.451Z,4.13
2019-05-05T12:22:13.967Z,4.37
2019-05-05T12:25:04.003Z,4.57
2019-05-05T12:27:33.919Z,3.90
2019-05-05T12:30:03.247Z,3.90
2019-05-05T12:32:30.190Z,4.03
2019-05-05T12:34:56.801Z,3.90
2019-05-05T12:37:23.691Z,3.30
2019-05-05T12:39:50.205Z,3.70
2019-05-05T12:42:16.701Z,3.77
2019-05-05T12:44:44.925Z,3.90
2019-05-05T12:47:28.428Z,3.93
2019-05-05T12:49:54.779Z,4.20
2019-05-05T12:52:21.119Z,3.90
2019-05-05T12:54:47.557Z,3.60
2019-05-05T12:57:15.673Z,3.50
2019-05-05T12:59:44.250Z,4.03
2019-05-05T13:02:10.752Z,3.63
2019-05-05T13:04:37.162Z,4.37
2019-05-05T13:07:04.944Z,4.07
2019-05-05T13:09:33.401Z,3.80
2019-05-05T13:11:59.880Z,4.13
2019-05-05T13:14:26.171Z,3.83
2019-05-05T13:16:55.433Z,3.97
2019-05-05T13:19:24.193Z,3.53
2019-05-05T13:22:09.648Z,3.47
2019-05-05T13:24:38.024Z,3.97
2019-05-05T13:27:19.122Z,3.80
2019-05-05T13:29:40.301Z,3.70
2019-05-05T13:32:06.631Z,4.03
2019-05-05T13:34:32.884Z,3.70
2019-05-05T13:36:59.291Z,4.30
2019-05-05T13:39:25.588Z,4.47
2019-05-05T13:41:53.639Z,3.83
2019-05-05T13:44:24.130Z,4.40
2019-05-05T13:46:50.247Z,3.97
2019-05-05T13:49:18.521Z,4.20
2019-05-05T13:51:44.860Z,4.00
2019-05-05T13:54:13.618Z,4.40
2019-05-05T13:56:39.768Z,4.40
2019-05-05T13:59:06.063Z,4.53
2019-05-05T14:01:34.118Z,4.30
2019-05-05T14:04:00.537Z,4.30
2019-05-05T14:06:26.826Z,3.63
2019-05-05T14:08:54.113Z,4.13
2019-05-05T14:11:20.617Z,4.03
2019-05-05T14:13:48.516Z,3.50
2019-05-05T14:16:15.119Z,4.03
2019-05-05T14:18:41.444Z,3.87
2019-05-05T14:21:07.880Z,4.17
2019-05-05T14:23:36.087Z,4.07
2019-05-05T14:26:03.851Z,3.50
2019-05-05T14:28:30.250Z,3.67
2019-05-05T14:31:10.838Z,3.80
2019-05-05T14:33:45.026Z,4.13
2019-05-05T14:36:16.501Z,3.90
2019-05-05T14:38:49.513Z,3.67
2019-05-05T14:41:15.917Z,3.67
2019-05-05T14:43:43.812Z,3.43
2019-05-05T14:46:10.300Z,4.00
2019-05-05T14:48:37.267Z,4.20
2019-05-05T14:51:04.015Z,3.60
2019-05-05T14:53:30.745Z,3.30
2019-05-05T14:55:57.156Z,3.40
2019-05-05T14:58:23.486Z,3.60
2019-05-05T15:00:50.072Z,3.60
2019-05-05T15:03:16.455Z,3.73
2019-05-05T15:05:44.622Z,4.07
2019-05-05T15:08:20.442Z,4.00
2019-05-05T15:10:51.728Z,4.10
2019-05-05T15:13:24.110Z,3.03
2019-05-05T15:15:50.224Z,3.83
2019-05-05T15:18:16.657Z,4.70
2019-05-05T15:20:44.059Z,4.10
2019-05-05T15:23:10.444Z,3.43
2019-05-05T15:25:36.980Z,3.80
2019-05-05T15:28:04.785Z,3.90
2019-05-05T15:30:33.356Z,3.93
2019-05-05T15:32:59.452Z,3.20
2019-05-05T15:35:25.783Z,3.60
2019-05-05T15:37:53.983Z,3.57
2019-05-05T15:40:20.412Z,4.37
2019-05-05T15:42:47.976Z,3.50
2019-05-05T15:45:14.381Z,4.10
2019-05-05T15:47:40.710Z,3.70
2019-05-05T15:50:08.166Z,3.90
2019-05-05T15:52:35.431Z,3.40
2019-05-05T15:55:05.802Z,3.70
2019-05-05T15:57:33.560Z,3.57
2019-05-05T16:00:00.425Z,3.23
2019-05-05T16:02:26.782Z,2.90
2019-05-05T16:04:54.119Z,3.20
2019-05-05T16:07:20.569Z,4.17
2019-05-05T16:09:46.910Z,3.57
2019-05-05T16:12:14.331Z,3.40
2019-05-05T16:14:44.493Z,3.43
2019-05-05T16:17:27.789Z,3.43
2019-05-05T16:20:04.893Z,3.27
2019-05-05T16:22:34.663Z,3.73
2019-05-05T16:25:15.182Z,3.43
2019-05-05T16:27:44.569Z,3.80
2019-05-05T16:30:14.488Z,3.80
2019-05-05T16:32:40.975Z,3.97
2019-05-05T16:35:08.392Z,3.70
2019-05-05T16:37:35.007Z,3.40
2019-05-05T16:40:03.482Z,3.70
2019-05-05T16:42:31.092Z,3.63
2019-05-05T16:44:57.684Z,3.13
2019-05-05T16:47:24.428Z,3.80
2019-05-05T16:49:51.064Z,3.60
2019-05-05T16:52:19.190Z,4.40
2019-05-05T16:54:55.740Z,4.17
2019-05-05T16:57:31.789Z,3.00
2019-05-05T16:59:49.692Z,2.67
2019-05-05T17:02:16.124Z,2.40
2019-05-05T17:04:43.366Z,2.53
2019-05-05T17:07:09.808Z,2.77
2019-05-05T17:09:36.243Z,2.90
2019-05-05T17:12:08.307Z,2.70
2019-05-05T17:14:36.581Z,2.90
2019-05-05T17:17:10.619Z,2.67
2019-05-05T17:19:44.808Z,3.47
2019-05-05T17:22:13.116Z,2.67
2019-05-05T17:24:39.431Z,3.60
2019-05-05T17:27:05.847Z,3.17
2019-05-05T17:29:32.122Z,3.33
2019-05-05T17:31:58.625Z,3.40
2019-05-05T17:34:26.987Z,3.10
2019-05-05T17:36:53.564Z,2.93
2019-05-05T17:39:21.174Z,2.93
2019-05-05T17:41:49.683Z,3.03
2019-05-05T17:44:24.211Z,3.07
2019-05-05T17:46:53.817Z,2.70
2019-05-05T17:49:31.390Z,2.93
2019-05-05T17:52:03.713Z,2.83
2019-05-05T17:54:34.700Z,2.70
2019-05-05T17:57:03.374Z,2.90
2019-05-05T17:59:29.409Z,3.50
2019-05-05T18:01:55.772Z,3.33
2019-05-05T18:04:22.074Z,3.40
2019-05-05T18:06:50.287Z,3.13
2019-05-05T18:09:35.348Z,2.90
2019-05-05T18:12:06.981Z,3.80
2019-05-05T18:14:35.203Z,3.30
2019-05-05T18:17:01.788Z,2.77
2019-05-05T18:19:28.414Z,3.87
2019-05-05T18:21:54.843Z,3.20
2019-05-05T18:24:21.280Z,2.97
2019-05-05T18:26:47.816Z,3.20
2019-05-05T18:29:34.078Z,3.27
2019-05-05T18:32:00.457Z,3.17
2019-05-05T18:34:26.812Z,2.70
2019-05-05T18:36:54.400Z,3.67
2019-05-05T18:39:20.983Z,3.40
2019-05-05T18:42:07.575Z,3.40
2019-05-05T18:44:38.494Z,2.90
2019-05-05T18:47:11.121Z,3.10
2019-05-05T18:49:38.151Z,3.20
2019-05-05T18:52:04.482Z,3.33
2019-05-05T18:54:30.759Z,3.40
2019-05-05T18:56:57.467Z,3.13
2019-05-05T18:59:24.027Z,3.63
2019-05-05T19:01:52.168Z,3.20
2019-05-05T19:04:26.486Z,2.70
2019-05-05T19:07:00.691Z,3.70
2019-05-05T19:09:27.073Z,3.50
2019-05-05T19:11:54.607Z,3.47
2019-05-05T19:14:21.012Z,3.87
2019-05-05T19:16:47.669Z,3.70
2019-05-05T19:19:14.330Z,3.77
2019-05-05T19:21:43.753Z,3.87
2019-05-05T19:24:10.122Z,3.60
2019-05-05T19:26:36.554Z,3.37
2019-05-05T19:29:04.991Z,3.47
2019-05-05T19:31:32.078Z,3.53
2019-05-05T19:33:59.336Z,3.97
2019-05-05T19:36:27.542Z,3.40
2019-05-05T19:38:54.898Z,3.30
2019-05-05T19:41:23.659Z,3.97
2019-05-05T19:43:54.798Z,3.00
2019-05-05T19:46:25.018Z,3.80
2019-05-05T19:48:53.629Z,3.30
2019-05-05T19:51:19.942Z,3.43
2019-05-05T19:53:46.251Z,3.10
2019-05-05T19:56:14.386Z,3.83
2019-05-05T19:58:40.868Z,3.37
2019-05-05T20:01:07.194Z,3.53
2019-05-05T20:03:35.148Z,3.23
2019-05-05T20:06:01.576Z,3.33
2019-05-05T20:08:39.889Z,3.30
2019-05-05T20:10:56.046Z,3.53
2019-05-05T20:13:23.048Z,4.13
2019-05-05T20:15:51.321Z,3.57
2019-05-05T20:18:17.650Z,4.10
2019-05-05T20:20:44.571Z,3.60
2019-05-05T20:23:11.027Z,4.17
2019-05-05T20:25:37.810Z,3.57
2019-05-05T20:28:04.201Z,3.10
2019-05-05T20:30:30.639Z,3.90
2019-05-05T20:32:58.924Z,3.33
2019-05-05T20:35:27.185Z,3.23
2019-05-05T20:37:55.464Z,4.37
2019-05-05T20:40:26.400Z,3.30
2019-05-05T20:42:54.307Z,3.80
2019-05-05T20:45:23.845Z,3.83
2019-05-05T20:47:50.263Z,4.20
2019-05-05T20:50:16.571Z,4.40
2019-05-05T20:52:44.205Z,4.10
2019-05-05T20:55:10.774Z,4.47
2019-05-05T20:57:37.089Z,3.80
2019-05-05T21:00:03.991Z,4.00
2019-05-05T21:02:30.350Z,5.03
2019-05-05T21:04:56.769Z,4.23
2019-05-05T21:07:26.290Z,4.07
2019-05-05T21:09:51.273Z,5.13
2019-05-05T21:12:17.476Z,3.90
2019-05-05T21:14:44.627Z,4.20
2019-05-05T21:17:13.525Z,4.70
2019-05-05T21:19:39.359Z,3.97
2019-05-05T21:22:24.120Z,4.47
2019-05-05T21:24:51.166Z,4.20
2019-05-05T21:27:17.605Z,3.90
2019-05-05T21:29:43.930Z,4.00
2019-05-05T21:32:10.261Z,3.77
2019-05-05T21:34:36.610Z,3.70
2019-05-05T21:37:04.395Z,3.90
2019-05-05T21:39:30.890Z,3.73
2019-05-05T21:41:57.219Z,4.40
2019-05-05T21:44:23.553Z,3.93
2019-05-05T21:46:49.791Z,4.10
2019-05-05T21:49:16.211Z,4.13
2019-05-05T21:51:59.643Z,4.30
2019-05-05T21:54:43.981Z,4.23
2019-05-05T21:57:19.145Z,4.93
2019-05-05T21:59:54.845Z,4.57
2019-05-05T22:02:15.284Z,5.17
2019-05-05T22:04:41.789Z,5.07
2019-05-05T22:07:08.211Z,4.83
2019-05-05T22:09:34.571Z,5.10
2019-05-05T22:12:00.903Z,5.00
2019-05-05T22:14:27.587Z,4.80
2019-05-05T22:16:54.470Z,5.23
2019-05-05T22:19:23.995Z,5.07
2019-05-05T22:21:54.430Z,4.97
2019-05-05T22:24:21.798Z,4.57
2019-05-05T22:26:48.308Z,5.27
2019-05-05T22:29:17.118Z,5.00
2019-05-05T22:31:43.013Z,4.53
2019-05-05T22:34:09.569Z,4.40
2019-05-05T22:36:36.779Z,4.53
2019-05-05T22:39:06.396Z,4.60
2019-05-05T22:41:33.770Z,5.13
2019-05-05T22:44:00.195Z,4.73
2019-05-05T22:46:26.526Z,5.07
2019-05-05T22:48:54.509Z,5.40
2019-05-05T22:51:20.912Z,5.53
2019-05-05T22:53:47.256Z,4.87
2019-05-05T22:56:14.788Z,4.93
2019-05-05T22:58:41.350Z,5.37
2019-05-05T23:01:07.732Z,5.13
2019-05-05T23:03:44.775Z,4.90
2019-05-05T23:06:13.778Z,5.07
2019-05-05T23:08:40.205Z,5.10
2019-05-05T23:11:06.520Z,5.33
2019-05-05T23:13:33.727Z,5.30
2019-05-05T23:16:05.556Z,5.83
2019-05-05T23:18:31.962Z,5.00
2019-05-05T23:21:15.991Z,5.40
2019-05-05T23:23:44.243Z,5.07
2019-05-05T23:26:13.983Z,5.50
2019-05-05T23:28:40.425Z,5.23
2019-05-05T23:31:06.860Z,6.33
2019-05-05T23:33:34.553Z,5.40
2019-05-05T23:36:00.960Z,5.77
2019-05-05T23:38:27.239Z,5.80
2019-05-05T23:40:54.096Z,5.90
2019-05-05T23:43:20.637Z,5.30
2019-05-05T23:45:46.944Z,5.53
2019-05-05T23:48:14.417Z,5.60
2019-05-05T23:50:40.834Z,5.67
2019-05-05T23:53:07.118Z,6.03
2019-05-05T23:55:34.393Z,5.87
2019-05-05T23:58:00.775Z,5.83
